VOI103B MMMX-MHLM
Flight info
| Callsign | VOI103B |
|---|---|
| Flight time | N/A |
| Altitude | 39000 |
| Route | ILETO3A ILETO UT109 VER UA552 MTT UM787 TIK DCT OMOSO |
| Aircraft | A321/M-SDE3FGHIRWY/LB1 |
Departure
| Time | N/A |
|---|---|
| Airport | Mexico City Benito Juárez International Airport (MMMX) |
Arrival
| Time | 2026-04-17 19:43 |
|---|---|
| Airport | Ramón Villeda Morales International Airport (MHLM) |
| Time | Latitude | Longitude | Altitude | Speed | Heading |
|---|---|---|---|---|---|
| 2026-04-17 18:35 | 18.48707 | -95.17096 | 38974 ft | 476 kts | 125° |
| 2026-04-17 18:35 | 18.44960 | -95.11327 | 38977 ft | 476 kts | 125° |
| 2026-04-17 18:36 | 18.41213 | -95.05575 | 38972 ft | 476 kts | 125° |
| 2026-04-17 18:36 | 18.37465 | -94.99833 | 38978 ft | 476 kts | 125° |
| 2026-04-17 18:37 | 18.33719 | -94.94082 | 38967 ft | 475 kts | 125° |
| 2026-04-17 18:37 | 18.30010 | -94.88380 | 38970 ft | 475 kts | 125° |
| 2026-04-17 18:38 | 18.26272 | -94.82653 | 38971 ft | 475 kts | 125° |
| 2026-04-17 18:38 | 18.22530 | -94.76932 | 38971 ft | 475 kts | 125° |
| 2026-04-17 18:39 | 18.18789 | -94.71208 | 38969 ft | 474 kts | 125° |
| 2026-04-17 18:39 | 18.15044 | -94.65496 | 38999 ft | 474 kts | 126° |
| 2026-04-17 18:40 | 18.11948 | -94.60731 | 39000 ft | 475 kts | 122° |
| 2026-04-17 18:40 | 18.09365 | -94.54369 | 39001 ft | 475 kts | 103° |
| 2026-04-17 18:41 | 18.07774 | -94.47631 | 38991 ft | 476 kts | 104° |
| 2026-04-17 18:41 | 18.06146 | -94.40889 | 38979 ft | 476 kts | 104° |
| 2026-04-17 18:42 | 18.04514 | -94.34141 | 38980 ft | 477 kts | 104° |
| 2026-04-17 18:42 | 18.02883 | -94.27379 | 38967 ft | 477 kts | 104° |
| 2026-04-17 18:43 | 18.01261 | -94.20624 | 38957 ft | 477 kts | 104° |
| 2026-04-17 18:43 | 17.99634 | -94.13854 | 38957 ft | 477 kts | 104° |
| 2026-04-17 18:44 | 17.98010 | -94.07136 | 38954 ft | 477 kts | 104° |
| 2026-04-17 18:44 | 17.96378 | -94.00374 | 38955 ft | 478 kts | 104° |
| 2026-04-17 18:45 | 17.94737 | -93.93607 | 38952 ft | 478 kts | 104° |
| 2026-04-17 18:45 | 17.93096 | -93.86837 | 38951 ft | 478 kts | 104° |
| 2026-04-17 18:46 | 17.91449 | -93.80070 | 38952 ft | 478 kts | 104° |
| 2026-04-17 18:46 | 17.89794 | -93.73307 | 38946 ft | 479 kts | 104° |
| 2026-04-17 18:47 | 17.88146 | -93.66581 | 38946 ft | 479 kts | 104° |
| 2026-04-17 18:47 | 17.86493 | -93.59800 | 38948 ft | 479 kts | 104° |
| 2026-04-17 18:48 | 17.84836 | -93.53009 | 38949 ft | 480 kts | 104° |
| 2026-04-17 18:48 | 17.83180 | -93.46222 | 38950 ft | 480 kts | 104° |
| 2026-04-17 18:49 | 17.81523 | -93.39470 | 38950 ft | 480 kts | 104° |
| 2026-04-17 18:49 | 17.79848 | -93.32689 | 38952 ft | 480 kts | 104° |
| 2026-04-17 18:50 | 17.78176 | -93.25905 | 38954 ft | 480 kts | 104° |
| 2026-04-17 18:50 | 17.76508 | -93.19130 | 38953 ft | 479 kts | 104° |
| 2026-04-17 18:51 | 17.74846 | -93.12401 | 38950 ft | 480 kts | 104° |
| 2026-04-17 18:51 | 17.73169 | -93.05631 | 38951 ft | 480 kts | 104° |
| 2026-04-17 18:52 | 17.71488 | -92.98865 | 38951 ft | 479 kts | 104° |
| 2026-04-17 18:52 | 17.69812 | -92.92099 | 38957 ft | 479 kts | 104° |
| 2026-04-17 18:53 | 17.68133 | -92.85331 | 38961 ft | 479 kts | 104° |
| 2026-04-17 18:53 | 17.66449 | -92.78570 | 38956 ft | 479 kts | 104° |
| 2026-04-17 18:54 | 17.64759 | -92.71805 | 38958 ft | 479 kts | 104° |
| 2026-04-17 18:54 | 17.63072 | -92.65051 | 38958 ft | 479 kts | 104° |
| 2026-04-17 18:55 | 17.61385 | -92.58291 | 38953 ft | 479 kts | 104° |
| 2026-04-17 18:55 | 17.59686 | -92.51536 | 38952 ft | 479 kts | 104° |
| 2026-04-17 18:56 | 17.57988 | -92.44770 | 38966 ft | 480 kts | 104° |
| 2026-04-17 18:56 | 17.56292 | -92.38009 | 38960 ft | 480 kts | 104° |
| 2026-04-17 18:57 | 17.54603 | -92.31294 | 38943 ft | 479 kts | 104° |
| 2026-04-17 18:57 | 17.52899 | -92.24540 | 38925 ft | 479 kts | 104° |
| 2026-04-17 18:58 | 17.51194 | -92.17780 | 38913 ft | 479 kts | 104° |
| 2026-04-17 18:58 | 17.49483 | -92.11030 | 38903 ft | 479 kts | 104° |
| 2026-04-17 18:59 | 17.47770 | -92.04267 | 38901 ft | 480 kts | 104° |
| 2026-04-17 18:59 | 17.46060 | -91.97516 | 38899 ft | 479 kts | 104° |
| 2026-04-17 19:00 | 17.44347 | -91.90768 | 38913 ft | 479 kts | 104° |
| 2026-04-17 19:00 | 17.42634 | -91.84017 | 38967 ft | 480 kts | 104° |
| 2026-04-17 19:01 | 17.40927 | -91.77309 | 38963 ft | 480 kts | 104° |
| 2026-04-17 19:01 | 17.39207 | -91.70565 | 38966 ft | 480 kts | 104° |
| 2026-04-17 19:02 | 17.37482 | -91.63824 | 38964 ft | 479 kts | 104° |
| 2026-04-17 19:02 | 17.35758 | -91.57083 | 38966 ft | 479 kts | 104° |
| 2026-04-17 19:03 | 17.34026 | -91.50348 | 38967 ft | 479 kts | 104° |
| 2026-04-17 19:03 | 17.32307 | -91.43667 | 38968 ft | 478 kts | 104° |
| 2026-04-17 19:04 | 17.30582 | -91.36944 | 38984 ft | 478 kts | 104° |
| 2026-04-17 19:04 | 17.28852 | -91.30224 | 38980 ft | 478 kts | 104° |
| 2026-04-17 19:05 | 17.27123 | -91.23518 | 38979 ft | 478 kts | 104° |
| 2026-04-17 19:05 | 17.25390 | -91.16804 | 38979 ft | 478 kts | 104° |
| 2026-04-17 19:06 | 17.23674 | -91.10095 | 38987 ft | 477 kts | 103° |
| 2026-04-17 19:06 | 17.21956 | -91.03381 | 38988 ft | 477 kts | 103° |
| 2026-04-17 19:07 | 17.20235 | -90.96676 | 38979 ft | 477 kts | 103° |
| 2026-04-17 19:07 | 17.18519 | -90.89974 | 38992 ft | 477 kts | 103° |
| 2026-04-17 19:08 | 17.16787 | -90.83275 | 38984 ft | 477 kts | 104° |
| 2026-04-17 19:08 | 17.15056 | -90.76579 | 38983 ft | 477 kts | 104° |
| 2026-04-17 19:09 | 17.13330 | -90.69878 | 38989 ft | 477 kts | 103° |
| 2026-04-17 19:09 | 17.11616 | -90.63220 | 38988 ft | 477 kts | 103° |
| 2026-04-17 19:10 | 17.09890 | -90.56525 | 38992 ft | 477 kts | 103° |
| 2026-04-17 19:10 | 17.08151 | -90.49834 | 38996 ft | 477 kts | 104° |
| 2026-04-17 19:11 | 17.06405 | -90.43146 | 38995 ft | 477 kts | 104° |
| 2026-04-17 19:11 | 17.04662 | -90.36460 | 38997 ft | 477 kts | 103° |
| 2026-04-17 19:12 | 17.02923 | -90.29775 | 39007 ft | 476 kts | 103° |
| 2026-04-17 19:12 | 17.01188 | -90.23103 | 39002 ft | 475 kts | 103° |
| 2026-04-17 19:13 | 16.99460 | -90.16472 | 39005 ft | 475 kts | 103° |
| 2026-04-17 19:13 | 16.97730 | -90.09856 | 39007 ft | 475 kts | 104° |
| 2026-04-17 19:14 | 16.95984 | -90.03201 | 39017 ft | 475 kts | 103° |
| 2026-04-17 19:14 | 16.94241 | -89.96553 | 38992 ft | 475 kts | 103° |
| 2026-04-17 19:15 | 16.92492 | -89.89902 | 38986 ft | 474 kts | 103° |
| 2026-04-17 19:15 | 16.90119 | -89.83471 | 38986 ft | 476 kts | 113° |
| 2026-04-17 19:16 | 16.87411 | -89.77165 | 39015 ft | 476 kts | 113° |
| 2026-04-17 19:16 | 16.84702 | -89.70858 | 39011 ft | 476 kts | 113° |
| 2026-04-17 19:17 | 16.81986 | -89.64552 | 39011 ft | 476 kts | 113° |
| 2026-04-17 19:17 | 16.79276 | -89.58247 | 39013 ft | 476 kts | 112° |
| 2026-04-17 19:18 | 16.76569 | -89.51936 | 39006 ft | 476 kts | 112° |
| 2026-04-17 19:18 | 16.73876 | -89.45672 | 39006 ft | 476 kts | 113° |
| 2026-04-17 19:19 | 16.71155 | -89.39368 | 38958 ft | 477 kts | 113° |
| 2026-04-17 19:19 | 16.69795 | -89.36222 | 38723 ft | 476 kts | 113° |
| 2026-04-17 19:19 | 16.68435 | -89.33080 | 38465 ft | 475 kts | 112° |
| 2026-04-17 19:20 | 16.67075 | -89.29943 | 38201 ft | 474 kts | 112° |
| 2026-04-17 19:20 | 16.65717 | -89.26807 | 37915 ft | 473 kts | 112° |
| 2026-04-17 19:20 | 16.64366 | -89.23681 | 37310 ft | 474 kts | 112° |
| 2026-04-17 19:20 | 16.63010 | -89.20542 | 36701 ft | 475 kts | 112° |
| 2026-04-17 19:21 | 16.61647 | -89.17384 | 35928 ft | 480 kts | 112° |
| 2026-04-17 19:21 | 16.60273 | -89.14197 | 35125 ft | 484 kts | 112° |
| 2026-04-17 19:21 | 16.58883 | -89.10983 | 34285 ft | 489 kts | 112° |
| 2026-04-17 19:21 | 16.57476 | -89.07734 | 33317 ft | 494 kts | 112° |
| 2026-04-17 19:22 | 16.56056 | -89.04460 | 32523 ft | 494 kts | 112° |
| 2026-04-17 19:22 | 16.54649 | -89.01223 | 32011 ft | 488 kts | 112° |
| 2026-04-17 19:22 | 16.53253 | -88.98011 | 31415 ft | 485 kts | 112° |
| 2026-04-17 19:22 | 16.51863 | -88.94815 | 30831 ft | 483 kts | 112° |
| 2026-04-17 19:23 | 16.50480 | -88.91635 | 30235 ft | 481 kts | 112° |
| 2026-04-17 19:23 | 16.47736 | -88.85326 | 29015 ft | 472 kts | 112° |
| 2026-04-17 19:23 | 16.46386 | -88.82231 | 28494 ft | 465 kts | 112° |
| 2026-04-17 19:24 | 16.45072 | -88.79216 | 27919 ft | 461 kts | 112° |
| 2026-04-17 19:24 | 16.43752 | -88.76189 | 27301 ft | 457 kts | 112° |
| 2026-04-17 19:24 | 16.42450 | -88.73200 | 26813 ft | 450 kts | 112° |
| 2026-04-17 19:24 | 16.41164 | -88.70245 | 26280 ft | 445 kts | 112° |
| 2026-04-17 19:25 | 16.39892 | -88.67323 | 25721 ft | 441 kts | 112° |
| 2026-04-17 19:25 | 16.38636 | -88.64439 | 25228 ft | 435 kts | 112° |
| 2026-04-17 19:25 | 16.37394 | -88.61588 | 24739 ft | 429 kts | 112° |
| 2026-04-17 19:25 | 16.36166 | -88.58780 | 24268 ft | 424 kts | 112° |
| 2026-04-17 19:26 | 16.34949 | -88.56003 | 23797 ft | 419 kts | 113° |
| 2026-04-17 19:26 | 16.33744 | -88.53256 | 23290 ft | 415 kts | 113° |
| 2026-04-17 19:26 | 16.32556 | -88.50547 | 22810 ft | 409 kts | 113° |
| 2026-04-17 19:26 | 16.31382 | -88.47863 | 22334 ft | 405 kts | 113° |
| 2026-04-17 19:27 | 16.30220 | -88.45206 | 21859 ft | 401 kts | 113° |
| 2026-04-17 19:27 | 16.29072 | -88.42575 | 21371 ft | 398 kts | 113° |
| 2026-04-17 19:27 | 16.27935 | -88.39962 | 20891 ft | 395 kts | 113° |
| 2026-04-17 19:27 | 16.26804 | -88.37371 | 20396 ft | 392 kts | 113° |
| 2026-04-17 19:28 | 16.25676 | -88.34798 | 19906 ft | 389 kts | 113° |
| 2026-04-17 19:28 | 16.24554 | -88.32248 | 19404 ft | 386 kts | 114° |
| 2026-04-17 19:28 | 16.23440 | -88.29717 | 18908 ft | 384 kts | 114° |
| 2026-04-17 19:28 | 16.22334 | -88.27202 | 18412 ft | 381 kts | 114° |
| 2026-04-17 19:29 | 16.21234 | -88.24702 | 17867 ft | 378 kts | 114° |
| 2026-04-17 19:29 | 16.20513 | -88.23060 | 17545 ft | 375 kts | 114° |
| 2026-04-17 19:29 | 16.19437 | -88.20608 | 17046 ft | 370 kts | 113° |
| 2026-04-17 19:29 | 16.18375 | -88.18190 | 16554 ft | 366 kts | 113° |
| 2026-04-17 19:30 | 16.17322 | -88.15794 | 16095 ft | 361 kts | 113° |
| 2026-04-17 19:30 | 16.16282 | -88.13429 | 15642 ft | 357 kts | 113° |
| 2026-04-17 19:30 | 16.15253 | -88.11096 | 15178 ft | 353 kts | 113° |
| 2026-04-17 19:30 | 16.14255 | -88.08836 | 14987 ft | 330 kts | 113° |
| 2026-04-17 19:31 | 16.13308 | -88.06769 | 14732 ft | 306 kts | 118° |
| 2026-04-17 19:31 | 16.12082 | -88.05016 | 14331 ft | 295 kts | 131° |
| 2026-04-17 19:31 | 16.10505 | -88.03610 | 14119 ft | 303 kts | 144° |
| 2026-04-17 19:31 | 16.08636 | -88.02592 | 13801 ft | 305 kts | 155° |
| 2026-04-17 19:32 | 16.06674 | -88.01739 | 13327 ft | 307 kts | 155° |
| 2026-04-17 19:32 | 16.04710 | -88.00886 | 13006 ft | 303 kts | 155° |
| 2026-04-17 19:32 | 16.02808 | -88.00058 | 12740 ft | 298 kts | 154° |
| 2026-04-17 19:32 | 16.00907 | -87.99227 | 12423 ft | 295 kts | 154° |
| 2026-04-17 19:33 | 15.99023 | -87.98406 | 12101 ft | 292 kts | 154° |
| 2026-04-17 19:33 | 15.97151 | -87.97591 | 11758 ft | 291 kts | 155° |
| 2026-04-17 19:33 | 15.95292 | -87.96778 | 11433 ft | 289 kts | 154° |
| 2026-04-17 19:33 | 15.93449 | -87.95973 | 11115 ft | 286 kts | 154° |
| 2026-04-17 19:34 | 15.91620 | -87.95176 | 10813 ft | 283 kts | 154° |
| 2026-04-17 19:34 | 15.89809 | -87.94387 | 10504 ft | 281 kts | 154° |
| 2026-04-17 19:34 | 15.88010 | -87.93601 | 10208 ft | 279 kts | 154° |
| 2026-04-17 19:34 | 15.86300 | -87.92697 | 9904 ft | 275 kts | 148° |
| 2026-04-17 19:35 | 15.84639 | -87.91728 | 9568 ft | 273 kts | 148° |
| 2026-04-17 19:35 | 15.82989 | -87.90770 | 9226 ft | 271 kts | 148° |
| 2026-04-17 19:35 | 15.81348 | -87.89815 | 8894 ft | 270 kts | 148° |
| 2026-04-17 19:35 | 15.79718 | -87.88865 | 8576 ft | 268 kts | 148° |
| 2026-04-17 19:36 | 15.78062 | -87.87899 | 7898 ft | 279 kts | 147° |
| 2026-04-17 19:36 | 15.76370 | -87.86916 | 7174 ft | 277 kts | 148° |
| 2026-04-17 19:36 | 15.74709 | -87.85952 | 6667 ft | 266 kts | 148° |
| 2026-04-17 19:36 | 15.73108 | -87.85025 | 6477 ft | 264 kts | 148° |
| 2026-04-17 19:37 | 15.71506 | -87.84088 | 6115 ft | 262 kts | 148° |
| 2026-04-17 19:37 | 15.69929 | -87.83160 | 5746 ft | 260 kts | 148° |
| 2026-04-17 19:37 | 15.68355 | -87.82231 | 5403 ft | 261 kts | 149° |
| 2026-04-17 19:37 | 15.66779 | -87.81300 | 5057 ft | 260 kts | 149° |
| 2026-04-17 19:38 | 15.65230 | -87.80385 | 4705 ft | 253 kts | 149° |
| 2026-04-17 19:38 | 15.63743 | -87.79507 | 4375 ft | 237 kts | 148° |
| 2026-04-17 19:38 | 15.62262 | -87.78844 | 3877 ft | 233 kts | 173° |
| 2026-04-17 19:38 | 15.60711 | -87.79089 | 3652 ft | 229 kts | 204° |
| 2026-04-17 19:39 | 15.59407 | -87.79985 | 3385 ft | 223 kts | 221° |
| 2026-04-17 19:39 | 15.58251 | -87.81000 | 3118 ft | 213 kts | 222° |
| 2026-04-17 19:39 | 15.57144 | -87.81972 | 2829 ft | 205 kts | 221° |
| 2026-04-17 19:39 | 15.56056 | -87.82924 | 2567 ft | 203 kts | 221° |
| 2026-04-17 19:40 | 15.54990 | -87.83856 | 2308 ft | 199 kts | 221° |
| 2026-04-17 19:40 | 15.53966 | -87.84751 | 2062 ft | 186 kts | 221° |
| 2026-04-17 19:40 | 15.53014 | -87.85582 | 1837 ft | 173 kts | 222° |
| 2026-04-17 19:40 | 15.52152 | -87.86335 | 1641 ft | 158 kts | 222° |
| 2026-04-17 19:41 | 15.51315 | -87.87067 | 1430 ft | 155 kts | 221° |
| 2026-04-17 19:41 | 15.50496 | -87.87784 | 1223 ft | 154 kts | 222° |
| 2026-04-17 19:41 | 15.49675 | -87.88501 | 1023 ft | 156 kts | 221° |
| 2026-04-17 19:41 | 15.48851 | -87.89221 | 802 ft | 154 kts | 219° |
| 2026-04-17 19:42 | 15.48037 | -87.89932 | 619 ft | 153 kts | 218° |
| 2026-04-17 19:42 | 15.47223 | -87.90643 | 417 ft | 154 kts | 220° |
| 2026-04-17 19:42 | 15.46404 | -87.91359 | 211 ft | 154 kts | 221° |
| 2026-04-17 19:42 | 15.45596 | -87.92067 | 140 ft | 151 kts | 223° |
| 2026-04-17 19:43 | 15.44821 | -87.92754 | 109 ft | 131 kts | 220° |
| 2026-04-17 19:43 | 15.44403 | -87.93091 | 111 ft | 43 kts | 218° |
| 2026-04-17 19:43 | 15.44258 | -87.93234 | 107 ft | 21 kts | 241° |
| 2026-04-17 19:43 | 15.44281 | -87.93335 | 106 ft | 12 kts | 325° |
| 2026-04-17 19:44 | 15.44345 | -87.93313 | 107 ft | 11 kts | 35° |
| 2026-04-17 19:44 | 15.44408 | -87.93262 | 107 ft | 12 kts | 39° |
| 2026-04-17 19:44 | 15.44478 | -87.93200 | 108 ft | 14 kts | 40° |
| 2026-04-17 19:44 | 15.44560 | -87.93129 | 108 ft | 16 kts | 40° |
| 2026-04-17 19:45 | 15.44653 | -87.93048 | 108 ft | 18 kts | 41° |
| 2026-04-17 19:45 | 15.44753 | -87.92957 | 108 ft | 20 kts | 40° |
| 2026-04-17 19:45 | 15.44867 | -87.92860 | 107 ft | 22 kts | 39° |
| 2026-04-17 19:45 | 15.44985 | -87.92756 | 107 ft | 23 kts | 40° |
| 2026-04-17 19:46 | 15.45112 | -87.92647 | 107 ft | 24 kts | 39° |
| 2026-04-17 19:46 | 15.45213 | -87.92558 | 108 ft | 14 kts | 41° |
| 2026-04-17 19:46 | 15.45304 | -87.92546 | 107 ft | 16 kts | 324° |
| 2026-04-17 19:46 | 15.45377 | -87.92632 | 107 ft | 13 kts | 319° |
| 2026-04-17 19:47 | 15.45458 | -87.92614 | 106 ft | 12 kts | 34° |
| 2026-04-17 19:47 | 15.45519 | -87.92631 | 106 ft | 0 kts | 313° |
| 2026-04-17 19:47 | 15.45528 | -87.92642 | 106 ft | 3 kts | 313° |
| 2026-04-17 19:47 | 15.45543 | -87.92659 | 106 ft | 3 kts | 310° |
| 2026-04-17 19:48 | 15.45543 | -87.92660 | 106 ft | 0 kts | 310° |